Hodges Dam (1105, 616) Station Data

Red Flag Warning: No
Fire Weather Zone: 258
SDGE Region: North East
Lat/Lon: 33.044/-117.135

Observations

Time Wind Speed/Gust Temp(F) RH Fuel Moist Fuel Temp(F) Dewpt(F) Tmax(F) Tmin(F) Accum Precip 10-min Precip SL Press(mb)
6/27 4:50pm 210 12 G 16 77° 55% - - 60° 85.6° 61.1° - - -
6/27 4:40pm 215 11 G 14 78° 52% - - 59° 85.6° 61.1° - - -
6/27 4:30pm 210 11 G 15 78° 49% - - 58° 85.6° 61.1° - - -
6/27 4:20pm 214 11 G 16 79° 46% - - 56° 85.6° 61.1° - - -
6/27 4:10pm 214 12 G 16 80° 44% - - 56° 85.6° 61.1° - - -
6/27 4:00pm 216 11 G 16 79° 43% - - 55° 85.6° 61.1° - - -
6/27 3:50pm 213 11 G 16 79° 45% - - 56° 85.6° 61.1° - - -
6/27 3:40pm 221 11 G 17 79° 45% - - 56° 85.6° 61.1° - - -
6/27 3:30pm 218 11 G 16 79° 46% - - 57° 85.6° 61.1° - - -
6/27 3:20pm 208 12 G 17 79° 46% - - 57° 85.6° 61.1° - - -
6/27 3:10pm 209 12 G 17 79° 47% - - 57° 85.6° 61.1° - - -
6/27 3:00pm 211 13 G 16 80° 47% - - 58° 85.6° 61.1° - - -
6/27 2:50pm 213 12 G 17 80° 49% - - 59° 85.6° 61.1° - - -
6/27 2:40pm 214 12 G 17 80° 49% - - 60° 85.6° 61.1° - - -
6/27 2:30pm 209 13 G 18 80° 49% - - 60° 85.6° 61.1° - - -
6/27 2:20pm 215 14 G 18 81° 48% - - 59° 85.6° 61.1° - - -
6/27 2:10pm 208 13 G 18 81° 47% - - 59° 85.6° 61.1° - - -
6/27 2:00pm 213 12 G 17 81° 45% - - 58° 85.6° 61.1° - - -
6/27 1:50pm 210 12 G 17 81° 43% - - 56° 85.6° 61.1° - - -
6/27 1:40pm 217 13 G 19 82° 44% - - 58° 85.6° 61.1° - - -
6/27 1:30pm 220 13 G 18 82° 46% - - 59° 85.6° 61.1° - - -
6/27 1:20pm 220 13 G 19 83° 46% - - 60° 85.6° 61.1° - - -
6/27 1:10pm 215 12 G 16 84° 46% - - 61° 85.6° 61.1° - - -
6/27 1:00pm 216 12 G 17 84° 41% - - 58° 85.6° 61.1° - - -
6/27 12:50pm 212 11 G 15 85° 40% - - 58° 85.6° 61.1° - - -
6/27 9:20am 208 7 G 10 78° 39% - - 51° 79.5° 61.1° - - -
6/27 9:10am 209 7 G 10 78° 38% - - 51° 79.2° 61.1° - - -
6/27 9:00am 217 7 G 9 77° 40% - - 51° 77.9° 61.1° - - -
6/27 8:50am 219 5 G 7 77° 38% - - 50° 77.9° 61.1° - - -
6/27 8:40am 198 4 G 6 77° 35% - - 47° 77.5° 61.1° - - -
6/27 8:30am 158 3 G 5 77° 33% - - 45° 77.4° 61.1° - - -
6/27 8:20am 47 2 G 5 76° 31% - - 43° 77.4° 61.1° - - -
6/27 8:10am 45 6 G 9 74° 31% - - 42° 75.3° 61.1° - - -
6/27 8:00am 19 7 G 11 73° 38% - - 46° 73.8° 61.1° - - -
6/27 7:50am 27 10 G 14 70° 46% - - 48° 71.8° 61.1° - - -
6/27 7:40am 33 11 G 14 69° 54% - - 52° 70.1° 61.1° - - -
6/27 7:30am 37 7 G 11 66° 68% - - 56° 69.3° 61.1° - - -
6/27 7:20am 42 5 G 6 66° 70% - - 56° 69.3° 61.1° - - -
6/27 7:10am 36 4 G 5 65° 71% - - 55° 69.3° 61.1° - - -
6/27 7:00am 38 4 G 5 65° 70% - - 55° 69.3° 61.1° - - -
6/27 6:50am 39 4 G 5 64° 71% - - 55° 69.3° 61.1° - - -
6/27 6:40am 37 3 G 5 64° 69% - - 53° 69.3° 61.1° - - -
6/27 6:30am 37 2 G 3 63° 72% - - 54° 69.3° 61.1° - - -
6/27 6:20am 49 2 G 4 63° 71% - - 54° 69.3° 61.1° - - -
6/27 6:10am 59 3 G 4 62° 73% - - 53° 69.3° 61.1° - - -
6/27 6:00am 46 4 G 7 62° 76% - - 54° 69.3° 61.1° - - -
6/27 5:50am 40 6 G 9 62° 74% - - 54° 69.3° 61.6° - - -
6/27 5:40am 43 8 G 11 63° 74% - - 54° 69.3° 62° - - -
6/27 5:30am 44 9 G 12 63° 74% - - 55° 69.3° 62° - - -
6/27 5:20am 43 11 G 13 63° 72% - - 54° 69.3° 62° - - -
6/27 5:10am 40 6 G 10 64° 69% - - 53° 69.3° 62° - - -
6/27 5:00am 37 5 G 9 63° 76% - - 55° 69.3° 62° - - -
6/27 4:50am 44 4 G 6 63° 75% - - 55° 69.3° 62.5° - - -
6/27 4:40am 50 6 G 9 65° 70% - - 55° 69.3° 63.1° - - -
6/27 4:30am 41 7 G 12 66° 62% - - 53° 69.3° 63.1° - - -
6/27 4:20am 26 10 G 14 67° 60% - - 52° 69.3° 63.1° - - -
6/27 4:10am 23 9 G 13 67° 58% - - 52° 69.3° 63.1° - - -
6/27 4:00am 38 9 G 13 66° 66% - - 54° 69.3° 63.1° - - -
6/27 3:50am 45 6 G 10 65° 68% - - 55° 69.3° 63.1° - - -
6/27 3:40am 39 7 G 10 64° 73% - - 55° 69.3° 63.1° - - -
6/27 3:30am 32 4 G 7 64° 74% - - 55° 69.3° 63.3° - - -
6/27 3:20am 40 3 G 5 64° 74% - - 56° 69.3° 63.5° - - -
6/27 3:10am 14 2 G 3 64° 75% - - 56° 69.3° 63.6° - - -
6/27 3:00am 30 2 G 4 64° 74% - - 56° 69.3° 63.8° - - -
6/27 2:50am 52 4 G 8 65° 75% - - 57° 69.3° 64.1° - - -
6/27 2:40am 40 6 G 7 65° 75% - - 57° 69.3° 64.5° - - -
6/27 2:30am 44 7 G 11 66° 73% - - 57° 69.3° 65° - - -
6/27 2:20am 45 7 G 9 67° 72% - - 57° 69.3° 65° - - -
6/27 2:10am 41 7 G 9 67° 71% - - 57° 69.3° 65° - - -
6/27 2:00am 46 6 G 8 66° 75% - - 57° 69.3° 65° - - -
6/27 1:50am 41 5 G 7 65° 75% - - 57° 69.3° 65° - - -
6/27 1:40am 41 6 G 9 66° 73% - - 57° 69.3° 65.5° - - -
6/27 1:30am 45 5 G 7 66° 71% - - 56° 69.3° 65.5° - - -
6/27 1:20am 31 4 G 6 66° 70% - - 56° 69.3° 65.5° - - -
6/27 1:10am 44 2 G 3 67° 67% - - 56° 69.3° 66.1° - - -
6/27 1:00am 46 1 G 2 68° 64% - - 55° 69.3° 66.5° - - -
6/27 12:50am 270 1 G 2 68° 62% - - 55° 69.3° 66.5° - - -
6/27 12:40am 233 2 G 3 68° 67% - - 57° 69.3° 66.5° - - -
6/27 12:30am 232 3 G 4 67° 70% - - 57° 69.3° 66.5° - - -
6/27 12:20am 223 4 G 5 67° 69% - - 57° 69.3° 66.5° - - -
6/27 12:10am 290 2 G 3 68° 66% - - 56° 69.3° 67.3° - - -
6/27 12:00am 298 1 G 2 68° 69% - - 57° 89.8° 60.8° - - -
6/26 11:50pm 26 2 G 6 68° 68% - - 57° 89.8° 60.8° - - -
6/26 11:40pm 47 6 G 7 69° 69% - - 58° 89.8° 60.8° - - -
6/26 11:30pm 41 5 G 7 70° 64% - - 57° 89.8° 60.8° - - -
6/26 11:20pm 33 6 G 8 71° 62% - - 57° 89.8° 60.8° - - -
6/26 11:10pm 34 8 G 11 71° 65% - - 59° 89.8° 60.8° - - -
6/26 11:00pm 37 11 G 13 72° 64% - - 59° 89.8° 60.8° - - -
6/26 10:50pm 35 11 G 12 72° 62% - - 58° 89.8° 60.8° - - -
6/26 10:40pm 43 10 G 11 72° 64% - - 59° 89.8° 60.8° - - -
6/26 10:30pm 40 9 G 11 71° 65% - - 59° 89.8° 60.8° - - -
6/26 10:20pm 40 5 G 10 70° 66% - - 58° 89.8° 60.8° - - -
6/26 10:10pm 19 2 G 3 70° 68% - - 59° 89.8° 60.8° - - -
6/26 10:00pm 254 1 G 3 69° 72% - - 59° 89.8° 60.8° - - -
6/26 9:50pm 227 3 G 4 69° 72% - - 60° 89.8° 60.8° - - -
6/26 9:40pm 228 3 G 4 69° 72% - - 59° 89.8° 60.8° - - -
6/26 9:30pm 234 4 G 6 69° 71% - - 59° 89.8° 60.8° - - -
6/26 9:20pm 227 5 G 7 70° 69% - - 60° 89.8° 60.8° - - -
6/26 9:10pm 228 6 G 8 71° 67% - - 59° 89.8° 60.8° - - -
6/26 9:00pm 216 4 G 5 71° 67% - - 60° 89.8° 60.8° - - -
6/26 8:50pm 211 4 G 6 72° 68% - - 60° 89.8° 60.8° - - -
6/26 8:40pm 214 5 G 7 72° 67% - - 61° 89.8° 60.8° - - -
6/26 8:30pm 220 5 G 7 74° 64% - - 61° 89.8° 60.8° - - -
6/26 8:20pm 236 4 G 6 75° 60% - - 60° 89.8° 60.8° - - -
6/26 8:10pm 248 4 G 6 76° 58% - - 60° 89.8° 60.8° - - -
6/26 8:00pm 248 4 G 6 76° 57% - - 60° 89.8° 60.8° - - -
6/26 7:50pm 237 4 G 8 77° 55% - - 60° 89.8° 60.8° - - -
6/26 7:40pm 235 5 G 8 78° 52% - - 59° 89.8° 60.8° - - -
6/26 7:30pm 236 5 G 8 79° 48% - - 58° 89.8° 60.8° - - -
6/26 7:20pm 233 6 G 8 80° 46% - - 57° 89.8° 60.8° - - -
6/26 7:10pm 221 6 G 8 81° 44% - - 57° 89.8° 60.8° - - -
6/26 7:00pm 221 6 G 9 81° 43% - - 56° 89.8° 60.8° - - -
6/26 6:50pm 222 7 G 10 82° 37% - - 53° 89.8° 60.8° - - -
6/26 6:40pm 227 9 G 12 83° 34% - - 52° 89.8° 60.8° - - -
6/26 6:30pm 222 10 G 14 84° 32% - - 51° 89.8° 60.8° - - -
6/26 6:20pm 221 10 G 13 84° 33% - - 52° 89.8° 60.8° - - -
6/26 6:10pm 224 10 G 13 85° 33% - - 52° 89.8° 60.8° - - -
6/26 6:00pm 230 9 G 13 85° 31% - - 51° 89.8° 60.8° - - -
6/26 5:50pm 231 11 G 16 85° 30% - - 50° 89.8° 60.8° - - -
6/26 5:40pm 222 10 G 14 86° 31% - - 51° 89.8° 60.8° - - -
6/26 5:30pm 226 11 G 15 86° 29% - - 51° 89.8° 60.8° - - -
6/26 5:20pm 226 12 G 18 86° 28% - - 49° 89.8° 60.8° - - -
6/26 5:10pm 223 12 G 17 86° 27% - - 49° 89.8° 60.8° - - -
6/26 5:00pm 223 13 G 18 87° 26% - - 48° 89.8° 60.8° - - -
6/26 4:50pm 223 13 G 18 88° 25% - - 48° 89.8° 60.8° - - -
6/26 4:40pm 226 13 G 17 88° 26% - - 48° 89.8° 60.8° - - -
6/26 4:30pm 226 13 G 18 88° 26% - - 48° 89.8° 60.8° - - -
6/26 4:20pm 226 11 G 17 89° 26% - - 50° 89.8° 60.8° - - -
6/26 4:10pm 228 12 G 17 88° 27% - - 50° 89.4° 60.8° - - -
6/26 4:00pm 221 13 G 18 88° 31% - - 54° 89.4° 60.8° - - -
6/26 3:50pm 225 13 G 18 88° 33% - - 56° 88.9° 60.8° - - -
6/26 3:40pm 226 14 G 18 88° 34% - - 56° 88.9° 60.8° - - -
6/26 3:30pm 211 12 G 16 87° 41% - - 61° 88.9° 60.8° - - -
6/26 3:20pm 210 12 G 15 87° 42% - - 61° 88.9° 60.8° - - -
6/26 3:10pm 210 12 G 18 87° 43% - - 62° 88.9° 60.8° - - -
6/26 3:00pm 211 13 G 18 87° 43% - - 62° 88.9° 60.8° - - -
6/26 2:50pm 208 12 G 16 87° 44% - - 62° 88.9° 60.8° - - -
6/26 2:40pm 210 12 G 16 87° 43% - - 62° 88.9° 60.8° - - -
6/26 2:30pm 212 11 G 16 88° 42% - - 62° 88.9° 60.8° - - -
6/26 2:20pm 211 11 G 16 87° 42% - - 61° 88.2° 60.8° - - -
6/26 2:10pm 212 12 G 17 86° 42% - - 61° 87.3° 60.8° - - -
6/26 2:00pm 208 11 G 16 86° 41% - - 60° 87.2° 60.8° - - -
6/26 1:50pm 203 11 G 15 85° 42% - - 60° 86.9° 60.8° - - -
6/26 1:40pm 213 11 G 15 85° 43% - - 59° 85.9° 60.8° - - -
6/26 1:30pm 213 10 G 14 85° 44% - - 61° 85.9° 60.8° - - -
6/26 1:20pm 211 11 G 15 84° 47% - - 61° 84.9° 60.8° - - -
6/26 1:10pm 215 11 G 16 84° 48% - - 62° 84.9° 60.8° - - -
6/26 1:00pm 209 12 G 15 84° 47% - - 62° 84.9° 60.8° - - -
6/26 12:50pm 213 11 G 17 84° 48% - - 62° 84.9° 60.8° - - -
6/26 12:40pm 215 11 G 14 84° 49% - - 62° 84.8° 60.8° - - -
6/26 12:30pm 210 11 G 15 84° 49% - - 63° 84.8° 60.8° - - -
6/26 12:20pm 214 10 G 16 84° 49% - - 63° 84.8° 60.8° - - -
6/26 12:10pm 211 10 G 15 84° 50% - - 63° 84.6° 60.8° - - -
6/26 12:00pm 210 10 G 14 83° 51% - - 63° 84.6° 60.8° - - -
6/26 11:50am 214 10 G 16 83° 51% - - 63° 84.6° 60.8° - - -
6/26 11:40am 212 10 G 14 83° 52% - - 63° 84.6° 60.8° - - -
6/26 11:30am 212 11 G 15 83° 52% - - 63° 84.6° 60.8° - - -
6/26 11:20am 218 10 G 15 83° 51% - - 63° 84.6° 60.8° - - -
6/26 11:10am 218 11 G 16 83° 52% - - 64° 84.6° 60.8° - - -
6/26 11:00am 216 9 G 13 84° 50% - - 63° 84.6° 60.8° - - -
6/26 10:50am 216 9 G 13 83° 50% - - 62° 83.9° 60.8° - - -
6/26 10:40am 226 9 G 14 83° 49% - - 62° 83.6° 60.8° - - -
6/26 10:30am 220 9 G 12 82° 49% - - 61° 83.1° 60.8° - - -
6/26 10:20am 219 10 G 13 82° 48% - - 61° 82.9° 60.8° - - -
6/26 10:10am 222 10 G 13 82° 47% - - 59° 82.5° 60.8° - - -
6/26 10:00am 221 9 G 13 81° 49% - - 61° 82.1° 60.8° - - -
6/26 9:50am 216 9 G 12 80° 52% - - 61° 81.2° 60.8° - - -
6/26 9:40am 214 8 G 10 79° 55% - - 62° 80.7° 60.8° - - -
6/26 9:30am 227 8 G 11 79° 56% - - 62° 79.6° 60.8° - - -
6/26 9:20am 228 6 G 10 79° 55% - - 61° 79.6° 60.8° - - -
6/26 9:10am 227 6 G 9 78° 57% - - 61° 78.2° 60.8° - - -
6/26 9:00am 228 6 G 8 76° 57% - - 60° 77.2° 60.8° - - -
6/26 8:50am 219 5 G 7 76° 57% - - 60° 76.9° 60.8° - - -
6/26 8:40am 209 4 G 7 75° 59% - - 60° 76.2° 60.8° - - -
6/26 8:30am 213 4 G 6 73° 64% - - 60° 74.9° 60.8° - - -
6/26 8:20am 211 4 G 6 71° 70% - - 61° 72.6° 60.8° - - -
6/26 8:10am 177 2 G 4 71° 72% - - 61° 71.8° 60.8° - - -
6/26 8:00am 194 1 G 3 69° 75% - - 61° 70.1° 60.8° - - -
6/26 7:50am 187 2 G 3 69° 77% - - 61° 69.7° 60.8° - - -
6/26 7:40am 64 3 G 4 69° 79% - - 62° 69.4° 60.8° - - -
6/26 7:30am 50 3 G 4 68° 82% - - 62° 68.5° 60.8° - - -
6/26 7:20am 43 3 G 4 67° 83% - - 61° 67.8° 60.8° - - -
6/26 7:10am 45 3 G 4 67° 85% - - 62° 67.8° 60.8° - - -
6/26 7:00am 41 3 G 5 66° 86% - - 62° 67.8° 60.8° - - -
6/26 6:50am 50 5 G 7 66° 86% - - 62° 67.8° 60.8° - - -
6/26 6:40am 52 7 G 10 66° 84% - - 61° 67.8° 60.8° - - -
6/26 6:30am 39 11 G 14 65° 89% - - 62° 67.8° 60.8° - - -
6/26 6:20am 39 12 G 16 65° 90% - - 62° 67.8° 60.8° - - -
6/26 6:10am 27 13 G 17 65° 90% - - 62° 67.8° 60.8° - - -
6/26 6:00am 34 13 G 17 64° 91% - - 62° 67.8° 60.8° - - -